Wetterdaten: Woche 07.08.23 - 13.08.23 (KW32)
Datum Zeit Temp. Aussen Temp. o. S. Temp +5cm Feuchte Auss Luftdruck Regen Sonnenschein Regendauer Solar Windben Empfang
07.08.2023 00:00 13,1 C 12,8 C 8,9 C 96 % 1012,6 hPa 0,0 l/m 0,00 h 0,00 h 0 W/m 18,5 km/h (3 Bft) 93,55 %
07.08.2023 01:00 13,1 C 12,4 C 8,9 C 95 % 1012,7 hPa 0,0 l/m 0,00 h 0,00 h 0 W/m 19,1 km/h (3 Bft) 96,66 %
07.08.2023 02:00 12,8 C 12,2 C 8,9 C 97 % 1012,8 hPa 0,0 l/m 0,00 h 0,50 h 0 W/m 19,4 km/h (3 Bft) 97,92 %
07.08.2023 03:00 12,7 C 12,2 C 8,9 C 97 % 1012,9 hPa 0,6 l/m 0,00 h 0,53 h 0 W/m 20,5 km/h (4 Bft) 97,83 %
07.08.2023 04:00 12,5 C 11,7 C 8,9 C 97 % 1013,2 hPa 1,4 l/m 0,00 h 0,83 h 0 W/m 19,0 km/h (3 Bft) 97,42 %
07.08.2023 05:00 12,3 C 11,7 C 8,9 C 98 % 1013,3 hPa 0,0 l/m 0,00 h 0,77 h 0 W/m 16,6 km/h (3 Bft) 96,59 %
07.08.2023 06:00 12,4 C 11,7 C 8,9 C 98 % 1013,4 hPa 0,0 l/m 0,00 h 0,00 h 7 W/m 16,2 km/h (3 Bft) 99,30 %
07.08.2023 07:00 12,5 C 12,2 C 8,9 C 97 % 1013,6 hPa 0,2 l/m 0,00 h 0,63 h 19 W/m 15,5 km/h (3 Bft) 95,67 %
07.08.2023 08:00 12,5 C 11,9 C 8,9 C 97 % 1014,2 hPa 0,4 l/m 0,00 h 0,17 h 43 W/m 21,7 km/h (4 Bft) 98,37 %
07.08.2023 09:00 12,5 C 12,0 C 8,9 C 98 % 1014,8 hPa 0,2 l/m 0,00 h 0,17 h 67 W/m 17,5 km/h (3 Bft) 98,22 %
07.08.2023 10:00 12,9 C 12,5 C 9,6 C 98 % 1015,7 hPa 0,6 l/m 0,00 h 0,23 h 107 W/m 13,1 km/h (3 Bft) 94,42 %
07.08.2023 11:00 14,5 C 15,5 C 10,6 C 95 % 1016,2 hPa 0,0 l/m 0,57 h 0,00 h 365 W/m 20,9 km/h (4 Bft) 98,30 %
07.08.2023 12:00 17,2 C 20,2 C 14,5 C 79 % 1016,3 hPa 0,2 l/m 0,83 h 0,00 h 774 W/m 22,6 km/h (4 Bft) 99,34 %
07.08.2023 13:00 18,5 C 19,7 C 14,5 C 66 % 1016,6 hPa 0,0 l/m 0,83 h 0,00 h 701 W/m 24,3 km/h (4 Bft) 95,01 %
07.08.2023 14:00 19,3 C 22,8 C 15,1 C 62 % 1016,7 hPa 0,0 l/m 0,70 h 0,00 h 765 W/m 24,2 km/h (4 Bft) 97,30 %
07.08.2023 15:00 20,1 C 23,1 C 15,5 C 58 % 1016,8 hPa 0,0 l/m 0,93 h 0,00 h 810 W/m 24,1 km/h (4 Bft) 95,96 %
07.08.2023 16:00 19,4 C 20,1 C 14,9 C 65 % 1017,1 hPa 0,0 l/m 0,47 h 0,00 h 436 W/m 18,1 km/h (3 Bft) 98,72 %
07.08.2023 17:00 18,3 C 19,5 C 13,6 C 75 % 1017,5 hPa 0,4 l/m 0,47 h 0,17 h 343 W/m 19,1 km/h (3 Bft) 96,30 %
07.08.2023 18:00 18,8 C 21,9 C 15,0 C 72 % 1017,4 hPa 0,0 l/m 1,00 h 0,00 h 389 W/m 18,8 km/h (3 Bft) 97,02 %
07.08.2023 19:00 18,0 C 17,2 C 13,4 C 75 % 1017,3 hPa 0,0 l/m 0,00 h 0,00 h 59 W/m 10,6 km/h (2 Bft) 98,79 %
07.08.2023 20:00 17,5 C 16,6 C 12,7 C 79 % 1017,2 hPa 0,0 l/m 0,03 h 0,00 h 31 W/m 2,0 km/h (1 Bft) 96,31 %
07.08.2023 21:00 16,8 C 15,5 C 11,6 C 81 % 1017,3 hPa 0,0 l/m 0,00 h 0,00 h 0 W/m 1,4 km/h (1 Bft) 97,34 %
07.08.2023 22:00 15,7 C 14,4 C 10,7 C 85 % 1017,1 hPa 0,0 l/m 0,00 h 0,00 h 0 W/m 0,6 km/h (0 Bft) 99,00 %
07.08.2023 23:00 14,9 C 13,9 C 10,6 C 86 % 1016,8 hPa 0,0 l/m 0,00 h 0,00 h 0 W/m 2,1 km/h (1 Bft) 96,87 %
08.08.2023 00:00 14,7 C 13,9 C 10,6 C 87 % 1016,3 hPa 0,0 l/m 0,00 h 0,00 h 0 W/m 3,9 km/h (1 Bft) 97,62 %
08.08.2023 01:00 14,6 C 13,9 C 10,5 C 86 % 1015,9 hPa 0,0 l/m 0,00 h 0,00 h 0 W/m 7,9 km/h (2 Bft) 96,63 %
08.08.2023 02:00 14,2 C 13,3 C 10,0 C 86 % 1015,4 hPa 0,0 l/m 0,00 h 0,00 h 0 W/m 9,8 km/h (2 Bft) 98,86 %
08.08.2023 03:00 13,8 C 12,8 C 9,4 C 88 % 1015,2 hPa 0,0 l/m 0,00 h 0,00 h 0 W/m 10,2 km/h (2 Bft) 94,67 %
08.08.2023 04:00 13,6 C 12,8 C 9,4 C 89 % 1014,9 hPa 0,0 l/m 0,00 h 0,00 h 0 W/m 10,9 km/h (2 Bft) 97,44 %
08.08.2023 05:00 13,5 C 12,7 C 9,3 C 90 % 1014,7 hPa 0,0 l/m 0,00 h 0,00 h 0 W/m 9,8 km/h (2 Bft) 99,56 %
08.08.2023 06:00 13,2 C 12,4 C 9,3 C 92 % 1014,5 hPa 0,0 l/m 0,00 h 0,00 h 14 W/m 11,3 km/h (2 Bft) 94,92 %
08.08.2023 07:00 13,6 C 13,1 C 9,8 C 93 % 1014,5 hPa 0,0 l/m 0,00 h 0,00 h 31 W/m 11,4 km/h (2 Bft) 99,39 %
08.08.2023 08:00 14,3 C 14,1 C 10,5 C 92 % 1014,7 hPa 0,0 l/m 0,10 h 0,00 h 116 W/m 14,8 km/h (3 Bft) 98,22 %
08.08.2023 09:00 15,3 C 15,7 C 11,5 C 90 % 1014,6 hPa 0,0 l/m 0,10 h 0,00 h 200 W/m 15,3 km/h (3 Bft) 96,08 %
08.08.2023 10:00 16,6 C 17,1 C 12,9 C 86 % 1014,6 hPa 0,0 l/m 0,33 h 0,00 h 298 W/m 15,0 km/h (3 Bft) 97,83 %
08.08.2023 11:00 17,3 C 17,8 C 13,8 C 83 % 1014,6 hPa 0,0 l/m 0,67 h 0,00 h 365 W/m 17,6 km/h (3 Bft) 98,29 %
08.08.2023 12:00 17,3 C 16,8 C 13,2 C 82 % 1014,6 hPa 0,0 l/m 0,00 h 0,10 h 173 W/m 15,0 km/h (3 Bft) 97,06 %
08.08.2023 13:00 17,7 C 17,8 C 13,8 C 82 % 1014,6 hPa 0,0 l/m 0,20 h 0,03 h 269 W/m 15,4 km/h (3 Bft) 97,95 %
08.08.2023 14:00 18,1 C 19,3 C 14,2 C 80 % 1014,4 hPa 0,0 l/m 0,37 h 0,00 h 466 W/m 19,3 km/h (3 Bft) 96,39 %
08.08.2023 15:00 18,7 C 19,1 C 14,5 C 76 % 1014,1 hPa 0,0 l/m 0,13 h 0,00 h 265 W/m 15,1 km/h (3 Bft) 99,05 %
08.08.2023 16:00 19,2 C 19,6 C 15,1 C 70 % 1014,2 hPa 0,0 l/m 0,23 h 0,00 h 277 W/m 16,0 km/h (3 Bft) 95,45 %
08.08.2023 17:00 20,1 C 21,4 C 15,8 C 66 % 1014,3 hPa 0,0 l/m 0,57 h 0,00 h 370 W/m 17,6 km/h (3 Bft) 98,44 %
08.08.2023 18:00 19,5 C 19,1 C 15,1 C 69 % 1014,3 hPa 0,0 l/m 0,48 h 0,17 h 140 W/m 13,8 km/h (3 Bft) 98,34 %
08.08.2023 19:00 18,2 C 17,2 C 13,7 C 75 % 1014,2 hPa 0,0 l/m 0,00 h 0,30 h 50 W/m 10,2 km/h (2 Bft) 95,59 %
08.08.2023 20:00 17,1 C 16,0 C 12,3 C 83 % 1014,2 hPa 0,0 l/m 0,00 h 0,10 h 10 W/m 8,3 km/h (2 Bft) 98,64 %
08.08.2023 21:00 16,2 C 15,1 C 11,2 C 90 % 1014,3 hPa 0,2 l/m 0,00 h 0,23 h 0 W/m 7,2 km/h (2 Bft) 98,59 %
08.08.2023 22:00 15,4 C 14,4 C 10,6 C 95 % 1013,9 hPa 0,4 l/m 0,00 h 0,40 h 0 W/m 8,3 km/h (2 Bft) 95,58 %
08.08.2023 23:00 15,1 C 14,4 C 10,6 C 97 % 1013,4 hPa 0,2 l/m 0,00 h 0,60 h 0 W/m 11,9 km/h (2 Bft) 97,09 %
09.08.2023 00:00 15,0 C 14,4 C 10,6 C 97 % 1012,7 hPa 0,0 l/m 0,00 h 0,07 h 0 W/m 14,0 km/h (3 Bft) 97,25 %
09.08.2023 01:00 15,2 C 14,4 C 10,6 C 98 % 1012,3 hPa 0,4 l/m 0,00 h 0,57 h 0 W/m 14,5 km/h (3 Bft) 96,90 %
09.08.2023 02:00 14,7 C 13,7 C 10,2 C 98 % 1012,6 hPa 1,8 l/m 0,00 h 0,37 h 0 W/m 11,4 km/h (2 Bft) 96,61 %
09.08.2023 03:00 14,2 C 13,0 C 9,7 C 98 % 1013,1 hPa 1,0 l/m 0,00 h 0,37 h 0 W/m 4,5 km/h (1 Bft) 97,99 %
09.08.2023 04:00 14,2 C 13,1 C 9,9 C 98 % 1013,4 hPa 0,2 l/m 0,00 h 0,53 h 0 W/m 0,0 km/h (0 Bft) 97,13 %
09.08.2023 05:00 13,9 C 12,8 C 9,6 C 99 % 1013,8 hPa 0,0 l/m 0,00 h 0,07 h 0 W/m 0,0 km/h (0 Bft) 97,66 %
09.08.2023 06:00 13,7 C 12,8 C 9,4 C 99 % 1014,5 hPa 0,0 l/m 0,00 h 0,00 h 12 W/m 0,0 km/h (0 Bft) 97,00 %
09.08.2023 07:00 13,7 C 13,1 C 9,6 C 99 % 1015,0 hPa 0,0 l/m 0,00 h 0,00 h 55 W/m 0,0 km/h (0 Bft) 96,57 %
09.08.2023 08:00 13,8 C 13,8 C 9,9 C 99 % 1015,6 hPa 0,0 l/m 0,03 h 0,00 h 101 W/m 0,0 km/h (0 Bft) 98,34 %
09.08.2023 09:00 14,4 C 15,5 C 10,8 C 99 % 1016,3 hPa 0,0 l/m 0,23 h 0,00 h 208 W/m 2,9 km/h (1 Bft) 96,94 %
09.08.2023 10:00 15,5 C 17,3 C 11,1 C 96 % 1016,7 hPa 0,0 l/m 0,48 h 0,00 h 383 W/m 4,4 km/h (1 Bft) 97,85 %
09.08.2023 11:00 17,4 C 19,3 C 12,8 C 86 % 1017,1 hPa 0,0 l/m 0,60 h 0,00 h 457 W/m 6,1 km/h (2 Bft) 98,79 %
09.08.2023 12:00 19,0 C 21,3 C 16,4 C 78 % 1017,3 hPa 0,0 l/m 0,93 h 0,00 h 523 W/m 6,4 km/h (2 Bft) 94,42 %
09.08.2023 13:00 20,2 C 21,5 C 16,9 C 72 % 1017,5 hPa 0,0 l/m 0,80 h 0,00 h 488 W/m 8,4 km/h (2 Bft) 98,15 %
09.08.2023 14:00 20,9 C 22,9 C 17,3 C 68 % 1017,7 hPa 0,0 l/m 0,60 h 0,00 h 458 W/m 10,5 km/h (2 Bft) 96,67 %
09.08.2023 15:00 22,5 C 25,4 C 18,1 C 63 % 1017,7 hPa 0,0 l/m 0,87 h 0,00 h 700 W/m 11,7 km/h (2 Bft) 97,20 %
09.08.2023 16:00 22,5 C 23,6 C 17,9 C 62 % 1017,7 hPa 0,0 l/m 0,43 h 0,00 h 439 W/m 10,3 km/h (2 Bft) 96,47 %
09.08.2023 17:00 22,7 C 24,2 C 18,2 C 62 % 1017,9 hPa 0,0 l/m 0,53 h 0,00 h 363 W/m 12,0 km/h (2 Bft) 98,05 %
09.08.2023 18:00 22,5 C 24,6 C 18,1 C 65 % 1018,2 hPa 0,0 l/m 0,70 h 0,00 h 298 W/m 14,2 km/h (3 Bft) 97,42 %
09.08.2023 19:00 21,8 C 21,1 C 16,8 C 66 % 1018,5 hPa 0,0 l/m 0,13 h 0,00 h 100 W/m 14,5 km/h (3 Bft) 96,19 %
09.08.2023 20:00 20,0 C 18,8 C 14,9 C 71 % 1019,1 hPa 0,0 l/m 0,00 h 0,00 h 19 W/m 7,4 km/h (2 Bft) 96,56 %
09.08.2023 21:00 18,5 C 17,3 C 13,6 C 76 % 1019,8 hPa 0,0 l/m 0,00 h 0,00 h 5 W/m 4,2 km/h (1 Bft) 98,53 %
09.08.2023 22:00 17,2 C 16,1 C 12,5 C 80 % 1020,3 hPa 0,0 l/m 0,00 h 0,00 h 0 W/m 3,6 km/h (1 Bft) 97,36 %
09.08.2023 23:00 16,0 C 14,3 C 10,9 C 84 % 1020,6 hPa 3,4 l/m 0,00 h 0,00 h 0 W/m 0,1 km/h (0 Bft) 97,60 %
10.08.2023 00:00 14,6 C 13,0 C 9,7 C 89 % 1020,8 hPa 0,0 l/m 0,00 h 0,00 h 0 W/m 0,0 km/h (0 Bft) 93,64 %
10.08.2023 01:00 13,6 C 12,2 C 9,2 C 92 % 1021,1 hPa 0,0 l/m 0,00 h 0,00 h 0 W/m 0,3 km/h (0 Bft) 99,78 %
10.08.2023 02:00 13,1 C 12,2 C 9,1 C 93 % 1021,3 hPa 0,0 l/m 0,00 h 0,00 h 0 W/m 0,0 km/h (0 Bft) 93,71 %
10.08.2023 03:00 13,3 C 12,8 C 9,7 C 93 % 1021,4 hPa 0,0 l/m 0,00 h 0,00 h 0 W/m 0,5 km/h (0 Bft) 99,20 %
10.08.2023 04:00 13,6 C 12,9 C 9,6 C 91 % 1021,5 hPa 0,0 l/m 0,00 h 0,00 h 0 W/m 0,0 km/h (0 Bft) 99,05 %
10.08.2023 05:00 13,2 C 11,9 C 8,8 C 91 % 1021,7 hPa 0,0 l/m 0,00 h 0,00 h 0 W/m 0,0 km/h (0 Bft) 99,34 %
10.08.2023 06:00 12,5 C 11,5 C 8,4 C 92 % 1022,0 hPa 0,0 l/m 0,00 h 0,00 h 11 W/m 0,0 km/h (0 Bft) 94,88 %
10.08.2023 07:00 12,5 C 12,0 C 8,9 C 94 % 1022,1 hPa 0,0 l/m 0,00 h 0,00 h 20 W/m 0,0 km/h (0 Bft) 98,03 %
10.08.2023 08:00 13,6 C 14,3 C 10,4 C 94 % 1022,2 hPa 0,0 l/m 0,42 h 0,00 h 181 W/m 2,9 km/h (1 Bft) 98,61 %
10.08.2023 09:00 17,1 C 24,7 C 14,1 C 78 % 1022,2 hPa 0,0 l/m 1,00 h 0,00 h 468 W/m 0,5 km/h (0 Bft) 99,63 %
10.08.2023 10:00 19,1 C 21,1 C 13,5 C 66 % 1022,2 hPa 0,0 l/m 1,00 h 0,00 h 569 W/m 0,5 km/h (0 Bft) 97,66 %
10.08.2023 11:00 20,4 C 22,6 C 16,0 C 67 % 1021,9 hPa 0,0 l/m 1,00 h 0,00 h 744 W/m 0,5 km/h (0 Bft) 99,85 %
10.08.2023 12:00 22,6 C 28,4 C 18,7 C 63 % 1021,9 hPa 0,0 l/m 1,00 h 0,00 h 819 W/m 3,2 km/h (1 Bft) 99,05 %
10.08.2023 13:00 23,5 C 25,6 C 17,8 C 61 % 1021,7 hPa 0,0 l/m 1,00 h 0,00 h 844 W/m 8,9 km/h (2 Bft) 100,00 %
10.08.2023 14:00 24,4 C 32,5 C 18,3 C 59 % 1021,4 hPa 0,0 l/m 1,00 h 0,00 h 876 W/m 12,1 km/h (2 Bft) 95,39 %
10.08.2023 15:00 25,3 C 28,2 C 19,1 C 58 % 1021,4 hPa 0,0 l/m 0,33 h 0,00 h 439 W/m 7,8 km/h (2 Bft) 87,62 %
10.08.2023 16:00 25,8 C 28,7 C 19,9 C 57 % 1021,1 hPa 0,0 l/m 0,88 h 0,00 h 708 W/m 8,0 km/h (2 Bft) 98,63 %
10.08.2023 17:00 26,3 C 30,6 C 20,6 C 55 % 1020,9 hPa 0,0 l/m 1,00 h 0,00 h 535 W/m 6,9 km/h (2 Bft) 95,86 %
10.08.2023 18:00 26,6 C 30,8 C 20,7 C 55 % 1020,7 hPa 0,0 l/m 1,00 h 0,00 h 369 W/m 5,4 km/h (1 Bft) 99,53 %
10.08.2023 19:00 24,3 C 23,5 C 18,7 C 61 % 1020,9 hPa 0,0 l/m 0,30 h 0,00 h 94 W/m 4,4 km/h (1 Bft) 97,01 %
10.08.2023 20:00 22,8 C 20,9 C 16,8 C 70 % 1020,8 hPa 0,0 l/m 0,00 h 0,00 h 17 W/m 1,1 km/h (0 Bft) 96,98 %
10.08.2023 21:00 21,0 C 18,8 C 15,2 C 77 % 1021,0 hPa 0,0 l/m 0,00 h 0,00 h 4 W/m 0,7 km/h (0 Bft) 98,52 %
10.08.2023 22:00 19,3 C 17,5 C 13,8 C 83 % 1021,2 hPa 0,0 l/m 0,00 h 0,00 h 0 W/m 0,2 km/h (0 Bft) 96,79 %
10.08.2023 23:00 18,2 C 16,4 C 13,0 C 86 % 1021,5 hPa 0,0 l/m 0,00 h 0,00 h 0 W/m 0,0 km/h (0 Bft) 97,57 %
11.08.2023 00:00 17,2 C 15,7 C 12,4 C 89 % 1021,4 hPa 0,0 l/m 0,00 h 0,00 h 0 W/m 0,0 km/h (0 Bft) 98,67 %
11.08.2023 01:00 16,6 C 15,3 C 12,0 C 91 % 1021,2 hPa 0,0 l/m 0,00 h 0,00 h 0 W/m 0,0 km/h (0 Bft) 98,15 %
11.08.2023 02:00 16,1 C 15,0 C 11,7 C 93 % 1020,9 hPa 0,0 l/m 0,00 h 0,00 h 0 W/m 0,5 km/h (0 Bft) 96,09 %
11.08.2023 03:00 15,8 C 15,0 C 11,7 C 93 % 1020,7 hPa 0,0 l/m 0,00 h 0,00 h 0 W/m 0,1 km/h (0 Bft) 98,58 %
11.08.2023 04:00 15,9 C 15,5 C 12,1 C 92 % 1020,4 hPa 0,0 l/m 0,00 h 0,00 h 0 W/m 3,1 km/h (1 Bft) 97,91 %
11.08.2023 05:00 15,8 C 15,0 C 11,7 C 91 % 1020,3 hPa 0,0 l/m 0,00 h 0,00 h 0 W/m 3,8 km/h (1 Bft) 96,47 %
11.08.2023 06:00 15,6 C 14,6 C 11,7 C 91 % 1020,2 hPa 0,0 l/m 0,00 h 0,00 h 10 W/m 2,3 km/h (1 Bft) 98,24 %
11.08.2023 07:00 15,7 C 15,3 C 11,9 C 92 % 1020,4 hPa 0,0 l/m 0,00 h 0,00 h 26 W/m 6,3 km/h (2 Bft) 97,71 %
11.08.2023 08:00 16,8 C 17,2 C 13,0 C 90 % 1020,2 hPa 0,0 l/m 0,43 h 0,00 h 160 W/m 8,8 km/h (2 Bft) 97,22 %
11.08.2023 09:00 20,0 C 25,6 C 16,7 C 80 % 1020,4 hPa 0,0 l/m 1,00 h 0,00 h 454 W/m 8,5 km/h (2 Bft) 99,36 %
11.08.2023 10:00 22,4 C 24,4 C 17,2 C 73 % 1020,5 hPa 0,0 l/m 0,87 h 0,00 h 540 W/m 7,5 km/h (2 Bft) 96,54 %
11.08.2023 11:00 24,6 C 27,2 C 20,0 C 67 % 1020,4 hPa 0,0 l/m 1,00 h 0,00 h 736 W/m 7,1 km/h (2 Bft) 96,37 %
11.08.2023 12:00 27,1 C 31,7 C 23,2 C 59 % 1020,2 hPa 0,0 l/m 1,00 h 0,00 h 767 W/m 8,9 km/h (2 Bft) 99,36 %
11.08.2023 13:00 28,2 C 29,6 C 22,5 C 56 % 1020,0 hPa 0,0 l/m 1,00 h 0,00 h 805 W/m 11,0 km/h (2 Bft) 96,30 %
11.08.2023 14:00 29,9 C 36,2 C 23,6 C 52 % 1019,7 hPa 0,0 l/m 1,00 h 0,00 h 783 W/m 14,8 km/h (3 Bft) 97,78 %
11.08.2023 15:00 30,1 C 32,4 C 23,9 C 51 % 1019,4 hPa 0,0 l/m 1,00 h 0,00 h 547 W/m 9,1 km/h (2 Bft) 97,94 %
11.08.2023 16:00 29,8 C 30,5 C 24,2 C 52 % 1019,1 hPa 0,0 l/m 1,00 h 0,00 h 457 W/m 9,6 km/h (2 Bft) 97,29 %
11.08.2023 17:00 30,8 C 34,4 C 25,0 C 50 % 1018,7 hPa 0,0 l/m 0,95 h 0,00 h 521 W/m 11,3 km/h (2 Bft) 98,20 %
11.08.2023 18:00 30,6 C 33,4 C 24,6 C 52 % 1018,4 hPa 0,0 l/m 0,90 h 0,00 h 338 W/m 7,7 km/h (2 Bft) 97,71 %
11.08.2023 19:00 29,1 C 27,4 C 22,0 C 59 % 1018,0 hPa 0,0 l/m 0,17 h 0,00 h 78 W/m 2,5 km/h (1 Bft) 96,50 %
11.08.2023 20:00 26,9 C 24,8 C 20,2 C 71 % 1017,9 hPa 0,0 l/m 0,00 h 0,00 h 15 W/m 0,0 km/h (0 Bft) 98,33 %
11.08.2023 21:00 25,3 C 23,3 C 19,0 C 76 % 1017,8 hPa 0,0 l/m 0,00 h 0,00 h 0 W/m 0,0 km/h (0 Bft) 99,50 %
11.08.2023 22:00 24,1 C 22,7 C 18,7 C 81 % 1018,2 hPa 0,0 l/m 0,00 h 0,13 h 0 W/m 13,4 km/h (3 Bft) 94,72 %
11.08.2023 23:00 22,0 C 20,2 C 16,3 C 91 % 1018,9 hPa 1,4 l/m 0,00 h 1,00 h 0 W/m 12,9 km/h (3 Bft) 99,71 %
12.08.2023 19:00 23,6 C 22,8 C 18,6 C 68 % 1016,4 hPa 0,0 l/m 0,18 h 0,00 h 64 W/m 7,2 km/h (2 Bft) 98,32 %
12.08.2023 20:00 22,5 C 21,0 C 16,9 C 73 % 1016,8 hPa 0,0 l/m 0,00 h 0,00 h 20 W/m 1,4 km/h (1 Bft) 96,16 %
12.08.2023 21:00 20,9 C 18,9 C 14,9 C 78 % 1017,3 hPa 0,0 l/m 0,00 h 0,00 h 0 W/m 0,0 km/h (0 Bft) 97,78 %
12.08.2023 22:00 19,5 C 17,7 C 14,0 C 85 % 1017,5 hPa 0,0 l/m 0,00 h 0,00 h 0 W/m 0,2 km/h (0 Bft) 97,47 %
12.08.2023 23:00 18,2 C 16,6 C 13,2 C 89 % 1017,7 hPa 0,0 l/m 0,00 h 0,00 h 0 W/m 0,0 km/h (0 Bft) 97,00 %
13.08.2023 00:00 17,4 C 16,1 C 12,8 C 92 % 1017,8 hPa 0,0 l/m 0,00 h 0,00 h 0 W/m 0,3 km/h (0 Bft) 98,83 %
13.08.2023 01:00 17,2 C 16,7 C 13,3 C 92 % 1017,9 hPa 0,0 l/m 0,00 h 0,00 h 0 W/m 1,4 km/h (1 Bft) 97,65 %
13.08.2023 02:00 17,5 C 16,9 C 13,6 C 90 % 1018,0 hPa 0,0 l/m 0,00 h 0,00 h 0 W/m 1,2 km/h (1 Bft) 96,44 %
13.08.2023 03:00 17,4 C 16,4 C 13,1 C 88 % 1018,2 hPa 0,0 l/m 0,00 h 0,00 h 0 W/m 0,0 km/h (0 Bft) 97,14 %
13.08.2023 04:00 16,8 C 15,6 C 12,3 C 89 % 1018,1 hPa 0,0 l/m 0,00 h 0,00 h 0 W/m 0,0 km/h (0 Bft) 97,30 %
13.08.2023 05:00 16,2 C 14,9 C 11,7 C 90 % 1018,0 hPa 0,0 l/m 0,00 h 0,00 h 0 W/m 0,0 km/h (0 Bft) 97,15 %
13.08.2023 06:00 15,7 C 14,5 C 11,4 C 92 % 1018,1 hPa 0,0 l/m 0,00 h 0,00 h 14 W/m 0,0 km/h (0 Bft) 97,49 %
13.08.2023 07:00 15,9 C 15,8 C 12,5 C 93 % 1018,1 hPa 0,0 l/m 0,00 h 0,00 h 42 W/m 0,0 km/h (0 Bft) 97,66 %
13.08.2023 08:00 16,6 C 16,6 C 13,2 C 92 % 1018,2 hPa 0,0 l/m 0,00 h 0,00 h 88 W/m 0,0 km/h (0 Bft) 96,50 %
13.08.2023 09:00 18,1 C 21,4 C 15,2 C 89 % 1018,3 hPa 0,0 l/m 0,70 h 0,00 h 332 W/m 0,1 km/h (0 Bft) 97,87 %
13.08.2023 10:00 20,2 C 20,8 C 16,5 C 82 % 1018,2 hPa 0,0 l/m 0,47 h 0,00 h 329 W/m 4,8 km/h (1 Bft) 97,36 %
13.08.2023 11:00 22,0 C 23,4 C 18,4 C 76 % 1017,8 hPa 0,0 l/m 1,00 h 0,00 h 483 W/m 9,8 km/h (2 Bft) 98,54 %
13.08.2023 12:00 23,3 C 24,8 C 19,9 C 71 % 1017,3 hPa 0,0 l/m 0,73 h 0,00 h 474 W/m 12,2 km/h (2 Bft) 97,13 %
13.08.2023 13:00 24,5 C 25,5 C 20,3 C 66 % 1017,0 hPa 0,0 l/m 0,87 h 0,00 h 668 W/m 10,4 km/h (2 Bft) 96,51 %
13.08.2023 14:00 24,8 C 26,4 C 20,1 C 66 % 1016,7 hPa 0,0 l/m 0,67 h 0,00 h 499 W/m 13,3 km/h (3 Bft) 98,80 %
13.08.2023 15:00 25,5 C 28,3 C 20,8 C 65 % 1016,3 hPa 0,0 l/m 1,00 h 0,00 h 643 W/m 13,1 km/h (3 Bft) 97,70 %
13.08.2023 16:00 26,4 C 27,4 C 21,0 C 55 % 1016,0 hPa 0,0 l/m 0,72 h 0,00 h 555 W/m 18,6 km/h (3 Bft) 96,03 %
13.08.2023 17:00 25,5 C 26,7 C 20,5 C 57 % 1015,7 hPa 0,0 l/m 0,57 h 0,00 h 344 W/m 17,5 km/h (3 Bft) 99,57 %
13.08.2023 18:00 25,6 C 28,6 C 21,0 C 56 % 1015,5 hPa 0,0 l/m 0,97 h 0,00 h 350 W/m 17,3 km/h (3 Bft) 95,95 %
13.08.2023 19:00 24,9 C 23,9 C 19,7 C 56 % 1015,5 hPa 0,0 l/m 0,20 h 0,00 h 75 W/m 12,3 km/h (3 Bft) 97,87 %
13.08.2023 20:00 23,4 C 21,5 C 17,7 C 62 % 1015,7 hPa 0,0 l/m 0,00 h 0,00 h 14 W/m 2,5 km/h (1 Bft) 96,86 %
13.08.2023 21:00 21,5 C 19,0 C 15,3 C 72 % 1016,0 hPa 0,0 l/m 0,00 h 0,00 h 0 W/m 3,0 km/h (1 Bft) 97,60 %
13.08.2023 22:00 19,8 C 17,8 C 14,4 C 80 % 1016,4 hPa 0,0 l/m 0,00 h 0,00 h 0 W/m 0,3 km/h (0 Bft) 95,85 %
13.08.2023 23:00 18,4 C 16,6 C 13,4 C 87 % 1016,4 hPa 0,0 l/m 0,00 h 0,00 h 0 W/m 0,0 km/h (0 Bft) 99,19 %
Min-Datum _ 07.08.23 10.08.23 07.08.23 11.08.23 09.08.23 - - - - 07.08.23 07.08.23
_ Min-Zeit 05:28 06:15 05:38 15:02 01:46 - - - - 20:00 00:02
Minimum _ 12,3 C 11,1 C 8,3 C 49 % 1012,1 hPa - - - - 0,0 km/h (0 Bft) 6,25 %
Max-Datum _ 11.08.23 11.08.23 11.08.23 07.08.23 10.08.23 09.08.23 08.08.23 09.08.23 07.08.23 07.08.23 07.08.23
_ Max-Zeit 17:26 14:02 12:32 10:46 08:45 23:05 18:14 04:05 14:50 08:34 00:56
Maximum _ 30,9 C 37,2 C 25,0 C 99 % 1022,3 hPa 3,4 l/m 0,08 h 0,08 h 1094 W/m 48,3 km/h
SO (6 Bft)
100,00 %
Durchschnitt _ 18,6 C 18,9 C 14,1 C 80 % 1017,4 hPa #13,0 l/m #43:41 h #9:04 h 324 W/m 8,1 km/h (2 Bft) 97,38 %
© 2023 W. Hausmann